Terminal Aerodrome Forecast
Issued by NWS Billings, MT

Home | Current Version | Previous Version | Text Only | Print | Product List | Glossary Off
Versions: 1 2 3 4 5 6 7 8 9 10 11 12 13 14 15 16 17 18

000
FTUS45 KBYZ 240531
TAFMLS
TAF
KMLS 240531Z 2406/2506 25007KT 6SM BR VCSH FEW070 BKN100
     FM241100 27011KT P6SM FEW100 BKN200
     FM241600 27012G20KT P6SM FEW070 SCT200
     FM250200 26009KT P6SM SCT100=

USA.gov is the U.S. government's official web portal to all federal, state and local government web resources and services.